sensor_id;sensor_type;location;lat;lon;timestamp;P1;durP1;ratioP1;P2;durP2;ratioP2
15921;SDS011;8060;50.948;3.146;2023-04-25T05:07:01;19.67;;;4.73;;
15921;SDS011;8060;50.948;3.146;2023-04-25T05:09:29;13.83;;;3.83;;
15921;SDS011;8060;50.948;3.146;2023-04-25T05:11:57;13.90;;;3.90;;
15921;SDS011;8060;50.948;3.146;2023-04-25T05:14:25;9.63;;;3.43;;
15921;SDS011;8060;50.948;3.146;2023-04-25T05:16:53;9.80;;;3.67;;
15921;SDS011;8060;50.948;3.146;2023-04-25T05:19:21;11.90;;;4.10;;
15921;SDS011;8060;50.948;3.146;2023-04-25T05:21:49;15.73;;;3.77;;
15921;SDS011;8060;50.948;3.146;2023-04-25T05:24:19;15.80;;;4.10;;
15921;SDS011;8060;50.948;3.146;2023-04-25T05:26:47;14.83;;;3.73;;
15921;SDS011;8060;50.948;3.146;2023-04-25T05:29:15;14.23;;;3.97;;
15921;SDS011;8060;50.948;3.146;2023-04-25T05:31:43;13.57;;;4.07;;
15921;SDS011;8060;50.948;3.146;2023-04-25T05:34:13;12.87;;;3.37;;
15921;SDS011;8060;50.948;3.146;2023-04-25T05:36:42;11.77;;;4.23;;
15921;SDS011;8060;50.948;3.146;2023-04-25T05:39:14;18.43;;;4.23;;
15921;SDS011;8060;50.948;3.146;2023-04-25T05:41:44;12.37;;;4.30;;
15921;SDS011;8060;50.948;3.146;2023-04-25T05:44:12;12.00;;;4.10;;
15921;SDS011;8060;50.948;3.146;2023-04-25T05:46:42;18.53;;;4.03;;
15921;SDS011;8060;50.948;3.146;2023-04-25T05:49:10;13.63;;;4.33;;
15921;SDS011;8060;50.948;3.146;2023-04-25T05:51:38;12.13;;;3.77;;
15921;SDS011;8060;50.948;3.146;2023-04-25T05:54:06;14.27;;;3.87;;
15921;SDS011;8060;50.948;3.146;2023-04-25T05:56:34;19.57;;;3.80;;
15921;SDS011;8060;50.948;3.146;2023-04-25T05:59:04;15.27;;;3.77;;
15921;SDS011;8060;50.948;3.146;2023-04-25T06:01:32;13.30;;;3.77;;
15921;SDS011;8060;50.948;3.146;2023-04-25T06:04:00;16.70;;;3.70;;
15921;SDS011;8060;50.948;3.146;2023-04-25T06:06:29;10.43;;;2.70;;
15921;SDS011;8060;50.948;3.146;2023-04-25T06:08:57;13.87;;;3.53;;
15921;SDS011;8060;50.948;3.146;2023-04-25T06:11:26;12.83;;;3.37;;
15921;SDS011;8060;50.948;3.146;2023-04-25T06:13:54;13.90;;;3.00;;
15921;SDS011;8060;50.948;3.146;2023-04-25T06:16:24;18.40;;;3.70;;
15921;SDS011;8060;50.948;3.146;2023-04-25T06:18:52;11.43;;;3.20;;
15921;SDS011;8060;50.948;3.146;2023-04-25T06:21:20;10.83;;;2.80;;
15921;SDS011;8060;50.948;3.146;2023-04-25T06:23:48;13.83;;;3.47;;
15921;SDS011;8060;50.948;3.146;2023-04-25T06:26:17;11.70;;;2.87;;
15921;SDS011;8060;50.948;3.146;2023-04-25T06:28:45;13.37;;;3.30;;
15921;SDS011;8060;50.948;3.146;2023-04-25T06:31:13;14.63;;;3.30;;
15921;SDS011;8060;50.948;3.146;2023-04-25T06:33:43;13.27;;;2.97;;
15921;SDS011;8060;50.948;3.146;2023-04-25T06:36:11;14.30;;;2.90;;
15921;SDS011;8060;50.948;3.146;2023-04-25T06:38:39;12.23;;;2.80;;
15921;SDS011;8060;50.948;3.146;2023-04-25T06:41:07;14.17;;;3.20;;
15921;SDS011;8060;50.948;3.146;2023-04-25T06:43:35;12.70;;;2.73;;
15921;SDS011;8060;50.948;3.146;2023-04-25T06:46:03;12.07;;;2.77;;
15921;SDS011;8060;50.948;3.146;2023-04-25T06:48:31;14.20;;;3.20;;
15921;SDS011;8060;50.948;3.146;2023-04-25T06:51:01;11.87;;;2.70;;
15921;SDS011;8060;50.948;3.146;2023-04-25T06:53:29;14.27;;;3.17;;
15921;SDS011;8060;50.948;3.146;2023-04-25T06:55:57;15.83;;;2.90;;
15921;SDS011;8060;50.948;3.146;2023-04-25T06:58:25;12.47;;;2.40;;
15921;SDS011;8060;50.948;3.146;2023-04-25T07:00:53;13.40;;;2.50;;
15921;SDS011;8060;50.948;3.146;2023-04-25T07:03:21;10.60;;;2.70;;
15921;SDS011;8060;50.948;3.146;2023-04-25T07:05:50;15.23;;;3.47;;
15921;SDS011;8060;50.948;3.146;2023-04-25T07:08:19;14.93;;;2.67;;
15921;SDS011;8060;50.948;3.146;2023-04-25T07:10:47;16.13;;;2.50;;
15921;SDS011;8060;50.948;3.146;2023-04-25T07:13:15;9.00;;;2.63;;
15921;SDS011;8060;50.948;3.146;2023-04-25T07:15:44;19.00;;;2.70;;
15921;SDS011;8060;50.948;3.146;2023-04-25T07:18:13;12.80;;;3.00;;
15921;SDS011;8060;50.948;3.146;2023-04-25T07:20:42;9.80;;;2.40;;
15921;SDS011;8060;50.948;3.146;2023-04-25T07:23:11;11.20;;;2.53;;
15921;SDS011;8060;50.948;3.146;2023-04-25T07:25:40;9.27;;;2.40;;
15921;SDS011;8060;50.948;3.146;2023-04-25T07:28:08;13.63;;;2.50;;
15921;SDS011;8060;50.948;3.146;2023-04-25T07:30:36;11.67;;;2.57;;
15921;SDS011;8060;50.948;3.146;2023-04-25T07:33:04;9.83;;;2.10;;
15921;SDS011;8060;50.948;3.146;2023-04-25T07:35:32;14.43;;;2.90;;
15921;SDS011;8060;50.948;3.146;2023-04-25T07:38:01;11.53;;;2.40;;
15921;SDS011;8060;50.948;3.146;2023-04-25T07:40:29;10.47;;;2.60;;
15921;SDS011;8060;50.948;3.146;2023-04-25T07:42:59;9.07;;;2.20;;
15921;SDS011;8060;50.948;3.146;2023-04-25T07:45:27;12.60;;;2.20;;
15921;SDS011;8060;50.948;3.146;2023-04-25T07:47:55;8.63;;;2.10;;
15921;SDS011;8060;50.948;3.146;2023-04-25T07:50:23;11.10;;;1.93;;
15921;SDS011;8060;50.948;3.146;2023-04-25T07:52:51;11.47;;;2.60;;
15921;SDS011;8060;50.948;3.146;2023-04-25T07:55:19;8.77;;;1.87;;
15921;SDS011;8060;50.948;3.146;2023-04-25T07:57:47;12.33;;;2.30;;
15921;SDS011;8060;50.948;3.146;2023-04-25T08:00:17;9.77;;;1.80;;
15921;SDS011;8060;50.948;3.146;2023-04-25T08:02:45;14.20;;;2.63;;
15921;SDS011;8060;50.948;3.146;2023-04-25T08:05:14;11.77;;;2.43;;
15921;SDS011;8060;50.948;3.146;2023-04-25T08:07:47;13.43;;;2.23;;
15921;SDS011;8060;50.948;3.146;2023-04-25T08:10:16;10.67;;;2.10;;
15921;SDS011;8060;50.948;3.146;2023-04-25T08:12:44;13.67;;;2.47;;
15921;SDS011;8060;50.948;3.146;2023-04-25T08:15:12;10.33;;;3.03;;
15921;SDS011;8060;50.948;3.146;2023-04-25T08:17:42;16.20;;;2.93;;
15921;SDS011;8060;50.948;3.146;2023-04-25T08:20:12;11.03;;;2.33;;
15921;SDS011;8060;50.948;3.146;2023-04-25T08:22:40;11.10;;;2.77;;
15921;SDS011;8060;50.948;3.146;2023-04-25T08:25:08;9.47;;;2.33;;
15921;SDS011;8060;50.948;3.146;2023-04-25T08:27:36;15.47;;;2.47;;
15921;SDS011;8060;50.948;3.146;2023-04-25T08:30:04;14.07;;;2.57;;
15921;SDS011;8060;50.948;3.146;2023-04-25T08:32:35;8.20;;;1.67;;
15921;SDS011;8060;50.948;3.146;2023-04-25T08:35:06;11.20;;;2.50;;
15921;SDS011;8060;50.948;3.146;2023-04-25T08:37:34;12.40;;;1.90;;
15921;SDS011;8060;50.948;3.146;2023-04-25T08:40:04;12.37;;;2.10;;
15921;SDS011;8060;50.948;3.146;2023-04-25T08:42:33;8.17;;;2.00;;
15921;SDS011;8060;50.948;3.146;2023-04-25T08:45:02;8.50;;;1.67;;
15921;SDS011;8060;50.948;3.146;2023-04-25T08:47:33;8.63;;;2.00;;
15921;SDS011;8060;50.948;3.146;2023-04-25T08:50:02;9.17;;;1.70;;
15921;SDS011;8060;50.948;3.146;2023-04-25T08:52:35;12.47;;;2.23;;
15921;SDS011;8060;50.948;3.146;2023-04-25T08:55:05;12.10;;;2.00;;
15921;SDS011;8060;50.948;3.146;2023-04-25T08:57:37;10.37;;;1.73;;
15921;SDS011;8060;50.948;3.146;2023-04-25T09:00:06;8.37;;;2.63;;
15921;SDS011;8060;50.948;3.146;2023-04-25T09:02:35;8.73;;;1.80;;
15921;SDS011;8060;50.948;3.146;2023-04-25T09:05:04;6.63;;;1.53;;
15921;SDS011;8060;50.948;3.146;2023-04-25T09:07:37;6.57;;;1.70;;
15921;SDS011;8060;50.948;3.146;2023-04-25T09:10:05;4.07;;;1.40;;
15921;SDS011;8060;50.948;3.146;2023-04-25T09:12:34;8.17;;;1.60;;
15921;SDS011;8060;50.948;3.146;2023-04-25T09:15:04;4.97;;;1.60;;
15921;SDS011;8060;50.948;3.146;2023-04-25T09:17:34;6.87;;;1.43;;
15921;SDS011;8060;50.948;3.146;2023-04-25T09:20:07;8.57;;;1.57;;
15921;SDS011;8060;50.948;3.146;2023-04-25T09:22:37;10.40;;;1.70;;
15921;SDS011;8060;50.948;3.146;2023-04-25T09:25:09;10.47;;;1.47;;
15921;SDS011;8060;50.948;3.146;2023-04-25T09:27:48;6.93;;;1.40;;
15921;SDS011;8060;50.948;3.146;2023-04-25T09:30:18;4.83;;;1.37;;
15921;SDS011;8060;50.948;3.146;2023-04-25T09:32:56;9.20;;;1.70;;
15921;SDS011;8060;50.948;3.146;2023-04-25T09:35:24;8.20;;;1.70;;
15921;SDS011;8060;50.948;3.146;2023-04-25T09:37:55;6.13;;;1.37;;
15921;SDS011;8060;50.948;3.146;2023-04-25T09:40:23;7.47;;;1.50;;
15921;SDS011;8060;50.948;3.146;2023-04-25T09:42:51;6.67;;;1.50;;
15921;SDS011;8060;50.948;3.146;2023-04-25T09:45:19;8.83;;;1.50;;
15921;SDS011;8060;50.948;3.146;2023-04-25T09:47:47;8.73;;;1.53;;
15921;SDS011;8060;50.948;3.146;2023-04-25T09:50:16;6.37;;;1.50;;
15921;SDS011;8060;50.948;3.146;2023-04-25T09:52:45;8.60;;;2.00;;
15921;SDS011;8060;50.948;3.146;2023-04-25T09:55:30;9.20;;;1.30;;
15921;SDS011;8060;50.948;3.146;2023-04-25T09:58:01;4.10;;;1.10;;
15921;SDS011;8060;50.948;3.146;2023-04-25T10:00:32;3.77;;;1.07;;
15921;SDS011;8060;50.948;3.146;2023-04-25T10:03:00;5.17;;;1.23;;
15921;SDS011;8060;50.948;3.146;2023-04-25T10:05:32;3.47;;;0.93;;
15921;SDS011;8060;50.948;3.146;2023-04-25T10:08:02;4.40;;;1.20;;
15921;SDS011;8060;50.948;3.146;2023-04-25T10:10:32;5.37;;;1.40;;
15921;SDS011;8060;50.948;3.146;2023-04-25T10:13:03;7.60;;;1.17;;
15921;SDS011;8060;50.948;3.146;2023-04-25T10:15:33;5.63;;;1.27;;
15921;SDS011;8060;50.948;3.146;2023-04-25T10:18:05;6.13;;;1.57;;
15921;SDS011;8060;50.948;3.146;2023-04-25T10:20:34;5.53;;;1.23;;
15921;SDS011;8060;50.948;3.146;2023-04-25T10:23:03;4.23;;;1.20;;
15921;SDS011;8060;50.948;3.146;2023-04-25T10:25:42;4.63;;;0.97;;
15921;SDS011;8060;50.948;3.146;2023-04-25T10:28:10;5.33;;;1.40;;
15921;SDS011;8060;50.948;3.146;2023-04-25T10:30:40;7.57;;;1.23;;
15921;SDS011;8060;50.948;3.146;2023-04-25T10:33:33;3.30;;;1.00;;
15921;SDS011;8060;50.948;3.146;2023-04-25T10:36:12;4.93;;;1.33;;
15921;SDS011;8060;50.948;3.146;2023-04-25T10:38:42;5.43;;;1.37;;
15921;SDS011;8060;50.948;3.146;2023-04-25T10:41:12;7.20;;;1.53;;
15921;SDS011;8060;50.948;3.146;2023-04-25T10:43:41;5.27;;;1.70;;
15921;SDS011;8060;50.948;3.146;2023-04-25T10:46:17;6.80;;;1.63;;
15921;SDS011;8060;50.948;3.146;2023-04-25T10:48:47;7.53;;;1.23;;
15921;SDS011;8060;50.948;3.146;2023-04-25T10:51:17;4.83;;;1.30;;
15921;SDS011;8060;50.948;3.146;2023-04-25T10:53:59;6.73;;;1.23;;
15921;SDS011;8060;50.948;3.146;2023-04-25T10:56:30;7.50;;;1.20;;
15921;SDS011;8060;50.948;3.146;2023-04-25T10:59:06;6.03;;;1.10;;
15921;SDS011;8060;50.948;3.146;2023-04-25T11:01:37;2.50;;;0.80;;
15921;SDS011;8060;50.948;3.146;2023-04-25T11:04:12;3.83;;;1.00;;
15921;SDS011;8060;50.948;3.146;2023-04-25T11:06:51;4.67;;;0.93;;
15921;SDS011;8060;50.948;3.146;2023-04-25T11:09:32;3.80;;;1.20;;
15921;SDS011;8060;50.948;3.146;2023-04-25T11:12:02;4.17;;;1.00;;
15921;SDS011;8060;50.948;3.146;2023-04-25T11:14:31;7.17;;;1.40;;
15921;SDS011;8060;50.948;3.146;2023-04-25T11:16:59;5.10;;;1.10;;
15921;SDS011;8060;50.948;3.146;2023-04-25T11:19:28;5.23;;;1.03;;
15921;SDS011;8060;50.948;3.146;2023-04-25T11:21:57;6.60;;;0.90;;
15921;SDS011;8060;50.948;3.146;2023-04-25T11:24:26;4.20;;;0.87;;
15921;SDS011;8060;50.948;3.146;2023-04-25T11:26:55;3.10;;;0.90;;
15921;SDS011;8060;50.948;3.146;2023-04-25T11:29:25;3.87;;;1.00;;
15921;SDS011;8060;50.948;3.146;2023-04-25T11:31:54;4.63;;;1.10;;
15921;SDS011;8060;50.948;3.146;2023-04-25T11:34:24;3.17;;;0.90;;
15921;SDS011;8060;50.948;3.146;2023-04-25T11:36:53;6.67;;;1.33;;
15921;SDS011;8060;50.948;3.146;2023-04-25T11:39:21;3.93;;;0.97;;
15921;SDS011;8060;50.948;3.146;2023-04-25T11:41:51;3.97;;;1.00;;
15921;SDS011;8060;50.948;3.146;2023-04-25T11:44:19;4.53;;;1.20;;
15921;SDS011;8060;50.948;3.146;2023-04-25T11:46:50;4.97;;;1.07;;
15921;SDS011;8060;50.948;3.146;2023-04-25T11:49:18;6.77;;;1.10;;
15921;SDS011;8060;50.948;3.146;2023-04-25T11:51:47;7.37;;;1.00;;
15921;SDS011;8060;50.948;3.146;2023-04-25T11:54:16;5.77;;;1.00;;
15921;SDS011;8060;50.948;3.146;2023-04-25T11:56:44;4.33;;;1.10;;
15921;SDS011;8060;50.948;3.146;2023-04-25T11:59:13;8.10;;;1.23;;
15921;SDS011;8060;50.948;3.146;2023-04-25T12:01:47;4.40;;;1.60;;
15921;SDS011;8060;50.948;3.146;2023-04-25T12:04:17;6.70;;;1.47;;
15921;SDS011;8060;50.948;3.146;2023-04-25T12:06:48;7.43;;;2.00;;
15921;SDS011;8060;50.948;3.146;2023-04-25T12:09:18;12.37;;;2.40;;
15921;SDS011;8060;50.948;3.146;2023-04-25T12:11:48;5.40;;;1.47;;
15921;SDS011;8060;50.948;3.146;2023-04-25T12:14:20;8.87;;;1.80;;
15921;SDS011;8060;50.948;3.146;2023-04-25T12:16:51;11.43;;;3.97;;
15921;SDS011;8060;50.948;3.146;2023-04-25T12:19:20;7.50;;;1.93;;
15921;SDS011;8060;50.948;3.146;2023-04-25T12:21:49;6.90;;;1.47;;
15921;SDS011;8060;50.948;3.146;2023-04-25T12:24:21;6.27;;;1.60;;
15921;SDS011;8060;50.948;3.146;2023-04-25T12:26:52;9.27;;;1.70;;
15921;SDS011;8060;50.948;3.146;2023-04-25T12:29:26;5.77;;;1.43;;
15921;SDS011;8060;50.948;3.146;2023-04-25T12:32:05;10.27;;;1.83;;
15921;SDS011;8060;50.948;3.146;2023-04-25T12:34:33;6.70;;;2.20;;
15921;SDS011;8060;50.948;3.146;2023-04-25T12:37:02;7.37;;;1.37;;
15921;SDS011;8060;50.948;3.146;2023-04-25T12:39:31;8.93;;;1.90;;
15921;SDS011;8060;50.948;3.146;2023-04-25T12:41:59;6.13;;;1.40;;
15921;SDS011;8060;50.948;3.146;2023-04-25T12:44:27;6.93;;;1.50;;
15921;SDS011;8060;50.948;3.146;2023-04-25T12:46:55;2.00;;;1.20;;
15921;SDS011;8060;50.948;3.146;2023-04-25T12:49:24;6.67;;;1.40;;
15921;SDS011;8060;50.948;3.146;2023-04-25T12:51:53;4.60;;;1.70;;
15921;SDS011;8060;50.948;3.146;2023-04-25T12:54:21;8.87;;;1.33;;
15921;SDS011;8060;50.948;3.146;2023-04-25T12:56:49;6.90;;;1.50;;
15921;SDS011;8060;50.948;3.146;2023-04-25T12:59:17;2.73;;;1.10;;
15921;SDS011;8060;50.948;3.146;2023-04-25T13:01:46;6.90;;;1.60;;
15921;SDS011;8060;50.948;3.146;2023-04-25T13:04:15;3.53;;;1.20;;
15921;SDS011;8060;50.948;3.146;2023-04-25T13:06:45;7.13;;;1.20;;
15921;SDS011;8060;50.948;3.146;2023-04-25T13:09:13;6.37;;;1.30;;
15921;SDS011;8060;50.948;3.146;2023-04-25T13:11:42;4.47;;;1.20;;
15921;SDS011;8060;50.948;3.146;2023-04-25T13:14:10;6.30;;;1.33;;
15921;SDS011;8060;50.948;3.146;2023-04-25T13:16:38;7.50;;;1.20;;
15921;SDS011;8060;50.948;3.146;2023-04-25T13:19:07;6.63;;;1.20;;
15921;SDS011;8060;50.948;3.146;2023-04-25T13:21:37;3.60;;;1.10;;
15921;SDS011;8060;50.948;3.146;2023-04-25T13:24:07;3.57;;;1.37;;
15921;SDS011;8060;50.948;3.146;2023-04-25T13:26:35;5.60;;;1.20;;
15921;SDS011;8060;50.948;3.146;2023-04-25T13:29:03;4.40;;;1.00;;
15921;SDS011;8060;50.948;3.146;2023-04-25T13:31:31;4.90;;;1.40;;
15921;SDS011;8060;50.948;3.146;2023-04-25T13:33:59;5.83;;;1.20;;
15921;SDS011;8060;50.948;3.146;2023-04-25T13:36:28;4.50;;;1.20;;
15921;SDS011;8060;50.948;3.146;2023-04-25T13:38:56;5.90;;;1.07;;
15921;SDS011;8060;50.948;3.146;2023-04-25T13:41:26;5.67;;;1.00;;
15921;SDS011;8060;50.948;3.146;2023-04-25T13:43:54;4.73;;;1.30;;
15921;SDS011;8060;50.948;3.146;2023-04-25T13:46:22;6.03;;;1.03;;
15921;SDS011;8060;50.948;3.146;2023-04-25T13:49:10;4.33;;;0.97;;
15921;SDS011;8060;50.948;3.146;2023-04-25T13:51:39;6.60;;;1.30;;
15921;SDS011;8060;50.948;3.146;2023-04-25T13:54:07;9.50;;;1.50;;
15921;SDS011;8060;50.948;3.146;2023-04-25T13:56:36;9.20;;;1.30;;
15921;SDS011;8060;50.948;3.146;2023-04-25T13:59:04;9.77;;;1.37;;
15921;SDS011;8060;50.948;3.146;2023-04-25T14:01:32;7.17;;;1.70;;
15921;SDS011;8060;50.948;3.146;2023-04-25T14:04:02;7.27;;;1.43;;
15921;SDS011;8060;50.948;3.146;2023-04-25T14:06:30;7.90;;;1.23;;
15921;SDS011;8060;50.948;3.146;2023-04-25T14:08:59;5.93;;;1.30;;
15921;SDS011;8060;50.948;3.146;2023-04-25T14:11:27;4.57;;;1.30;;
15921;SDS011;8060;50.948;3.146;2023-04-25T14:13:57;5.57;;;1.50;;
15921;SDS011;8060;50.948;3.146;2023-04-25T14:16:25;9.73;;;1.20;;
15921;SDS011;8060;50.948;3.146;2023-04-25T14:18:53;8.37;;;1.30;;
15921;SDS011;8060;50.948;3.146;2023-04-25T14:21:21;4.73;;;1.20;;
15921;SDS011;8060;50.948;3.146;2023-04-25T14:23:50;5.70;;;1.10;;
15921;SDS011;8060;50.948;3.146;2023-04-25T14:26:18;5.07;;;1.13;;
15921;SDS011;8060;50.948;3.146;2023-04-25T14:28:46;6.47;;;1.60;;
15921;SDS011;8060;50.948;3.146;2023-04-25T14:31:16;4.47;;;1.27;;
15921;SDS011;8060;50.948;3.146;2023-04-25T14:33:44;5.77;;;1.60;;
15921;SDS011;8060;50.948;3.146;2023-04-25T14:36:12;7.10;;;1.23;;
15921;SDS011;8060;50.948;3.146;2023-04-25T14:38:40;10.57;;;1.93;;
15921;SDS011;8060;50.948;3.146;2023-04-25T14:41:09;8.60;;;1.33;;
15921;SDS011;8060;50.948;3.146;2023-04-25T14:43:37;5.97;;;1.43;;
15921;SDS011;8060;50.948;3.146;2023-04-25T14:46:06;3.73;;;1.00;;
15921;SDS011;8060;50.948;3.146;2023-04-25T14:48:36;8.47;;;1.40;;
15921;SDS011;8060;50.948;3.146;2023-04-25T14:51:04;6.10;;;1.27;;
15921;SDS011;8060;50.948;3.146;2023-04-25T14:53:32;6.40;;;1.33;;
15921;SDS011;8060;50.948;3.146;2023-04-25T14:56:00;8.90;;;1.57;;
15921;SDS011;8060;50.948;3.146;2023-04-25T14:58:28;6.03;;;1.53;;
15921;SDS011;8060;50.948;3.146;2023-04-25T15:00:57;8.07;;;1.83;;
15921;SDS011;8060;50.948;3.146;2023-04-25T15:03:28;6.87;;;1.37;;
15921;SDS011;8060;50.948;3.146;2023-04-25T15:05:58;10.43;;;2.43;;
15921;SDS011;8060;50.948;3.146;2023-04-25T15:08:27;6.60;;;1.50;;
15921;SDS011;8060;50.948;3.146;2023-04-25T15:10:55;6.73;;;1.23;;
15921;SDS011;8060;50.948;3.146;2023-04-25T15:13:24;7.07;;;1.47;;
15921;SDS011;8060;50.948;3.146;2023-04-25T15:15:53;5.80;;;1.27;;
15921;SDS011;8060;50.948;3.146;2023-04-25T15:18:21;7.73;;;1.27;;
15921;SDS011;8060;50.948;3.146;2023-04-25T15:20:51;6.60;;;1.00;;
15921;SDS011;8060;50.948;3.146;2023-04-25T15:23:21;7.87;;;1.40;;
15921;SDS011;8060;50.948;3.146;2023-04-25T15:25:51;8.43;;;1.43;;
15921;SDS011;8060;50.948;3.146;2023-04-25T15:28:19;5.77;;;1.33;;
15921;SDS011;8060;50.948;3.146;2023-04-25T15:30:48;6.90;;;1.30;;
15921;SDS011;8060;50.948;3.146;2023-04-25T15:33:16;4.43;;;1.20;;
15921;SDS011;8060;50.948;3.146;2023-04-25T15:35:44;6.17;;;1.43;;
15921;SDS011;8060;50.948;3.146;2023-04-25T15:38:13;5.73;;;1.20;;
15921;SDS011;8060;50.948;3.146;2023-04-25T15:40:42;6.20;;;1.63;;
15921;SDS011;8060;50.948;3.146;2023-04-25T15:43:11;7.83;;;1.30;;
15921;SDS011;8060;50.948;3.146;2023-04-25T15:45:42;8.50;;;1.37;;
15921;SDS011;8060;50.948;3.146;2023-04-25T15:48:11;7.17;;;1.57;;
15921;SDS011;8060;50.948;3.146;2023-04-25T15:50:40;9.23;;;1.57;;
15921;SDS011;8060;50.948;3.146;2023-04-25T15:53:08;10.90;;;1.80;;
15921;SDS011;8060;50.948;3.146;2023-04-25T15:55:36;5.53;;;1.20;;
15921;SDS011;8060;50.948;3.146;2023-04-25T15:58:06;10.80;;;1.53;;
15921;SDS011;8060;50.948;3.146;2023-04-25T16:00:37;7.87;;;1.33;;
15921;SDS011;8060;50.948;3.146;2023-04-25T16:03:06;6.03;;;2.10;;
15921;SDS011;8060;50.948;3.146;2023-04-25T16:05:35;4.90;;;1.30;;
15921;SDS011;8060;50.948;3.146;2023-04-25T16:08:03;4.13;;;0.90;;
15921;SDS011;8060;50.948;3.146;2023-04-25T16:10:31;5.70;;;1.37;;
15921;SDS011;8060;50.948;3.146;2023-04-25T16:13:00;8.90;;;1.67;;
15921;SDS011;8060;50.948;3.146;2023-04-25T17:10:22;7.23;;;1.63;;
15921;SDS011;8060;50.948;3.146;2023-04-25T17:12:51;6.00;;;1.47;;
15921;SDS011;8060;50.948;3.146;2023-04-25T17:15:19;6.97;;;1.40;;
15921;SDS011;8060;50.948;3.146;2023-04-25T17:17:47;6.30;;;1.50;;
15921;SDS011;8060;50.948;3.146;2023-04-25T17:20:15;7.03;;;1.20;;
15921;SDS011;8060;50.948;3.146;2023-04-25T17:22:43;6.87;;;1.70;;
15921;SDS011;8060;50.948;3.146;2023-04-25T17:25:12;11.47;;;1.70;;
15921;SDS011;8060;50.948;3.146;2023-04-25T17:27:41;6.10;;;1.60;;
15921;SDS011;8060;50.948;3.146;2023-04-25T17:30:09;7.83;;;1.87;;
15921;SDS011;8060;50.948;3.146;2023-04-25T17:32:38;5.10;;;1.47;;
15921;SDS011;8060;50.948;3.146;2023-04-25T17:35:06;5.20;;;1.67;;
15921;SDS011;8060;50.948;3.146;2023-04-25T17:37:35;6.70;;;1.30;;
15921;SDS011;8060;50.948;3.146;2023-04-25T17:40:04;6.47;;;1.47;;
15921;SDS011;8060;50.948;3.146;2023-04-25T17:42:37;4.27;;;1.40;;
15921;SDS011;8060;50.948;3.146;2023-04-25T17:45:07;4.47;;;1.20;;
15921;SDS011;8060;50.948;3.146;2023-04-25T17:47:38;7.97;;;1.63;;
15921;SDS011;8060;50.948;3.146;2023-04-25T17:50:07;6.77;;;1.60;;
15921;SDS011;8060;50.948;3.146;2023-04-25T17:52:35;7.17;;;1.60;;
15921;SDS011;8060;50.948;3.146;2023-04-25T17:55:04;5.43;;;1.47;;
15921;SDS011;8060;50.948;3.146;2023-04-25T17:57:32;4.53;;;1.60;;
15921;SDS011;8060;50.948;3.146;2023-04-25T18:00:01;5.03;;;1.70;;
15921;SDS011;8060;50.948;3.146;2023-04-25T18:02:32;5.67;;;1.77;;
15921;SDS011;8060;50.948;3.146;2023-04-25T18:05:02;4.47;;;1.50;;
15921;SDS011;8060;50.948;3.146;2023-04-25T18:07:34;5.63;;;1.40;;
15921;SDS011;8060;50.948;3.146;2023-04-25T18:10:03;7.93;;;1.60;;
15921;SDS011;8060;50.948;3.146;2023-04-25T18:12:32;3.70;;;1.53;;
15921;SDS011;8060;50.948;3.146;2023-04-25T18:15:01;8.53;;;1.60;;
15921;SDS011;8060;50.948;3.146;2023-04-25T18:17:33;5.53;;;1.43;;
15921;SDS011;8060;50.948;3.146;2023-04-25T18:20:06;8.23;;;1.90;;
15921;SDS011;8060;50.948;3.146;2023-04-25T18:22:37;8.77;;;1.60;;
